sensor_id;sensor_type;location;lat;lon;timestamp;pressure;altitude;pressure_sealevel;temperature;humidity
35443;BME280;21561;55.654;37.592;2023-10-31T00:00:17;98611.78;;;8.57;100.00
35443;BME280;21561;55.654;37.592;2023-10-31T00:02:44;98624.69;;;8.57;100.00
35443;BME280;21561;55.654;37.592;2023-10-31T00:05:11;98612.66;;;8.56;100.00
35443;BME280;21561;55.654;37.592;2023-10-31T00:07:39;98607.47;;;8.58;100.00
35443;BME280;21561;55.654;37.592;2023-10-31T00:10:06;98610.09;;;8.56;100.00
35443;BME280;21561;55.654;37.592;2023-10-31T00:12:33;98611.84;;;8.54;100.00
35443;BME280;21561;55.654;37.592;2023-10-31T00:15:00;98606.66;;;8.54;100.00
35443;BME280;21561;55.654;37.592;2023-10-31T00:17:30;98623.03;;;8.53;100.00
35443;BME280;21561;55.654;37.592;2023-10-31T00:19:57;98606.66;;;8.54;100.00
35443;BME280;21561;55.654;37.592;2023-10-31T00:22:24;98615.28;;;8.53;100.00
35443;BME280;21561;55.654;37.592;2023-10-31T00:24:51;98623.91;;;8.52;100.00
35443;BME280;21561;55.654;37.592;2023-10-31T00:27:18;98626.56;;;8.51;100.00
35443;BME280;21561;55.654;37.592;2023-10-31T00:29:45;98627.41;;;8.51;100.00
35443;BME280;21561;55.654;37.592;2023-10-31T00:32:12;98640.34;;;8.50;100.00
35443;BME280;21561;55.654;37.592;2023-10-31T00:34:39;98642.09;;;8.49;100.00
35443;BME280;21561;55.654;37.592;2023-10-31T00:37:06;98632.59;;;8.48;100.00
35443;BME280;21561;55.654;37.592;2023-10-31T00:39:33;98636.94;;;8.48;100.00
35443;BME280;21561;55.654;37.592;2023-10-31T00:42:00;98632.59;;;8.48;100.00
35443;BME280;21561;55.654;37.592;2023-10-31T00:44:27;98655.03;;;8.46;100.00
35443;BME280;21561;55.654;37.592;2023-10-31T00:46:54;98641.25;;;8.47;100.00
35443;BME280;21561;55.654;37.592;2023-10-31T00:49:21;98643.84;;;8.47;100.00
35443;BME280;21561;55.654;37.592;2023-10-31T00:51:48;98652.47;;;8.45;100.00
35443;BME280;21561;55.654;37.592;2023-10-31T00:54:15;98650.78;;;8.44;100.00
35443;BME280;21561;55.654;37.592;2023-10-31T00:56:42;98651.63;;;8.41;100.00
35443;BME280;21561;55.654;37.592;2023-10-31T00:59:09;98655.06;;;8.45;100.00
35443;BME280;21561;55.654;37.592;2023-10-31T01:01:36;98668.91;;;8.42;100.00
35443;BME280;21561;55.654;37.592;2023-10-31T01:04:04;98672.31;;;8.41;100.00
35443;BME280;21561;55.654;37.592;2023-10-31T01:06:31;98666.28;;;8.40;100.00
35443;BME280;21561;55.654;37.592;2023-10-31T01:08:58;98666.28;;;8.40;100.00
35443;BME280;21561;55.654;37.592;2023-10-31T01:11:25;98673.16;;;8.41;100.00
35443;BME280;21561;55.654;37.592;2023-10-31T01:13:52;98679.22;;;8.44;100.00
35443;BME280;21561;55.654;37.592;2023-10-31T01:16:19;98678.34;;;8.43;100.00
35443;BME280;21561;55.654;37.592;2023-10-31T01:18:47;98678.31;;;8.45;100.00
35443;BME280;21561;55.654;37.592;2023-10-31T01:21:13;98688.66;;;8.45;100.00
35443;BME280;21561;55.654;37.592;2023-10-31T01:23:40;98693.00;;;8.44;100.00
35443;BME280;21561;55.654;37.592;2023-10-31T01:26:07;98685.25;;;8.43;100.00
35443;BME280;21561;55.654;37.592;2023-10-31T01:28:35;98692.16;;;8.42;100.00
35443;BME280;21561;55.654;37.592;2023-10-31T01:31:02;98689.59;;;8.42;100.00
35443;BME280;21561;55.654;37.592;2023-10-31T01:33:29;98693.00;;;8.41;100.00
35443;BME280;21561;55.654;37.592;2023-10-31T01:35:57;98705.09;;;8.42;100.00
35443;BME280;21561;55.654;37.592;2023-10-31T01:38:24;98708.50;;;8.44;100.00
35443;BME280;21561;55.654;37.592;2023-10-31T01:40:51;98711.09;;;8.41;100.00
35443;BME280;21561;55.654;37.592;2023-10-31T01:43:37;98710.25;;;8.42;100.00
35443;BME280;21561;55.654;37.592;2023-10-31T01:46:04;98708.53;;;8.38;100.00
35443;BME280;21561;55.654;37.592;2023-10-31T01:48:32;98717.19;;;8.37;100.00
35443;BME280;21561;55.654;37.592;2023-10-31T01:51:02;98714.59;;;8.37;100.00
35443;BME280;21561;55.654;37.592;2023-10-31T01:53:35;98717.19;;;8.37;100.00
35443;BME280;21561;55.654;37.592;2023-10-31T01:56:03;98725.81;;;8.36;100.00
35443;BME280;21561;55.654;37.592;2023-10-31T01:58:35;98724.94;;;8.38;100.00
35443;BME280;21561;55.654;37.592;2023-10-31T02:01:04;98718.91;;;8.36;100.00
35443;BME280;21561;55.654;37.592;2023-10-31T02:03:31;98719.78;;;8.35;100.00
35443;BME280;21561;55.654;37.592;2023-10-31T02:06:00;98725.81;;;8.36;100.00
35443;BME280;21561;55.654;37.592;2023-10-31T02:08:27;98741.31;;;8.36;100.00
35443;BME280;21561;55.654;37.592;2023-10-31T02:10:54;98743.06;;;8.35;100.00
35443;BME280;21561;55.654;37.592;2023-10-31T02:13:21;98753.38;;;8.37;100.00
35443;BME280;21561;55.654;37.592;2023-10-31T02:15:49;98755.13;;;8.35;100.00
35443;BME280;21561;55.654;37.592;2023-10-31T02:18:16;98749.06;;;8.36;100.00
35443;BME280;21561;55.654;37.592;2023-10-31T02:21:03;98759.41;;;8.34;100.00
35443;BME280;21561;55.654;37.592;2023-10-31T02:23:30;98762.06;;;8.33;100.00
35443;BME280;21561;55.654;37.592;2023-10-31T02:25:57;98767.19;;;8.34;100.00
35443;BME280;21561;55.654;37.592;2023-10-31T02:28:24;98763.75;;;8.34;100.00
35443;BME280;21561;55.654;37.592;2023-10-31T02:30:55;98768.91;;;8.34;100.00
35443;BME280;21561;55.654;37.592;2023-10-31T02:33:22;98768.06;;;8.33;100.00
35443;BME280;21561;55.654;37.592;2023-10-31T02:35:49;98767.22;;;8.31;100.00
35443;BME280;21561;55.654;37.592;2023-10-31T02:38:16;98772.41;;;8.31;100.00
35443;BME280;21561;55.654;37.592;2023-10-31T02:40:43;98770.69;;;8.29;100.00
35443;BME280;21561;55.654;37.592;2023-10-31T02:43:10;98776.75;;;8.29;100.00
35443;BME280;21561;55.654;37.592;2023-10-31T02:45:37;98779.34;;;8.28;100.00
35443;BME280;21561;55.654;37.592;2023-10-31T02:48:05;98775.91;;;8.26;100.00
35443;BME280;21561;55.654;37.592;2023-10-31T02:50:32;98784.53;;;8.25;100.00
35443;BME280;21561;55.654;37.592;2023-10-31T02:52:59;98793.13;;;8.27;100.00
35443;BME280;21561;55.654;37.592;2023-10-31T02:55:26;98789.72;;;8.25;100.00
35443;BME280;21561;55.654;37.592;2023-10-31T02:57:53;98790.53;;;8.27;100.00
35443;BME280;21561;55.654;37.592;2023-10-31T03:00:20;98804.28;;;8.29;100.00
35443;BME280;21561;55.654;37.592;2023-10-31T03:02:47;98800.03;;;8.28;100.00
35443;BME280;21561;55.654;37.592;2023-10-31T03:05:14;98807.75;;;8.29;100.00
35443;BME280;21561;55.654;37.592;2023-10-31T03:07:41;98819.78;;;8.30;100.00
35443;BME280;21561;55.654;37.592;2023-10-31T03:10:08;98818.94;;;8.31;100.00
35443;BME280;21561;55.654;37.592;2023-10-31T03:12:35;98822.34;;;8.32;100.00
35443;BME280;21561;55.654;37.592;2023-10-31T03:15:03;98824.09;;;8.31;100.00
35443;BME280;21561;55.654;37.592;2023-10-31T03:17:30;98836.16;;;8.31;100.00
35443;BME280;21561;55.654;37.592;2023-10-31T03:19:58;98820.69;;;8.28;100.00
35443;BME280;21561;55.654;37.592;2023-10-31T03:22:25;98817.22;;;8.29;100.00
35443;BME280;21561;55.654;37.592;2023-10-31T03:24:51;98815.53;;;8.28;100.00
35443;BME280;21561;55.654;37.592;2023-10-31T03:27:18;98820.69;;;8.28;100.00
35443;BME280;21561;55.654;37.592;2023-10-31T03:29:45;98834.47;;;8.27;100.00
35443;BME280;21561;55.654;37.592;2023-10-31T03:32:12;98837.91;;;8.29;100.00
35443;BME280;21561;55.654;37.592;2023-10-31T03:34:39;98838.78;;;8.26;100.00
35443;BME280;21561;55.654;37.592;2023-10-31T03:37:07;98832.72;;;8.29;100.00
35443;BME280;21561;55.654;37.592;2023-10-31T03:39:34;98833.59;;;8.29;100.00
35443;BME280;21561;55.654;37.592;2023-10-31T03:42:01;98843.06;;;8.29;100.00
35443;BME280;21561;55.654;37.592;2023-10-31T03:44:28;98838.72;;;8.31;100.00
35443;BME280;21561;55.654;37.592;2023-10-31T03:46:55;98841.28;;;8.34;100.00
35443;BME280;21561;55.654;37.592;2023-10-31T03:49:22;98836.13;;;8.34;100.00
35443;BME280;21561;55.654;37.592;2023-10-31T03:51:49;98830.94;;;8.34;100.00
35443;BME280;21561;55.654;37.592;2023-10-31T03:54:17;98840.44;;;8.35;100.00
35443;BME280;21561;55.654;37.592;2023-10-31T03:56:44;98846.47;;;8.34;100.00
35443;BME280;21561;55.654;37.592;2023-10-31T03:59:10;98855.97;;;8.32;100.00
35443;BME280;21561;55.654;37.592;2023-10-31T04:01:37;98857.69;;;8.31;100.00
35443;BME280;21561;55.654;37.592;2023-10-31T04:04:05;98856.00;;;8.29;100.00
35443;BME280;21561;55.654;37.592;2023-10-31T04:06:32;98855.13;;;8.28;100.00
35443;BME280;21561;55.654;37.592;2023-10-31T04:08:58;98858.56;;;8.29;100.00
35443;BME280;21561;55.654;37.592;2023-10-31T04:11:25;98867.22;;;8.28;100.00
35443;BME280;21561;55.654;37.592;2023-10-31T04:13:52;98872.38;;;8.28;100.00
35443;BME280;21561;55.654;37.592;2023-10-31T04:16:19;98874.09;;;8.29;100.00
35443;BME280;21561;55.654;37.592;2023-10-31T04:18:46;98880.09;;;8.31;100.00
35443;BME280;21561;55.654;37.592;2023-10-31T04:21:13;98881.84;;;8.29;100.00
35443;BME280;21561;55.654;37.592;2023-10-31T04:23:40;98879.25;;;8.29;100.00
35443;BME280;21561;55.654;37.592;2023-10-31T04:26:07;98886.16;;;8.30;100.00
35443;BME280;21561;55.654;37.592;2023-10-31T04:28:34;98893.06;;;8.28;100.00
35443;BME280;21561;55.654;37.592;2023-10-31T04:31:00;98879.25;;;8.29;100.00
35443;BME280;21561;55.654;37.592;2023-10-31T04:33:27;98886.16;;;8.30;100.00
35443;BME280;21561;55.654;37.592;2023-10-31T04:35:54;98886.16;;;8.30;100.00
35443;BME280;21561;55.654;37.592;2023-10-31T04:38:21;98886.13;;;8.31;100.00
35443;BME280;21561;55.654;37.592;2023-10-31T04:40:48;98888.66;;;8.34;100.00
35443;BME280;21561;55.654;37.592;2023-10-31T04:43:15;98887.81;;;8.34;100.00
35443;BME280;21561;55.654;37.592;2023-10-31T04:45:42;98895.59;;;8.31;100.00
35443;BME280;21561;55.654;37.592;2023-10-31T04:48:10;98893.00;;;8.31;100.00
35443;BME280;21561;55.654;37.592;2023-10-31T04:50:43;98889.56;;;8.32;100.00
35443;BME280;21561;55.654;37.592;2023-10-31T04:53:10;98899.91;;;8.30;100.00
35443;BME280;21561;55.654;37.592;2023-10-31T04:55:38;98910.31;;;8.26;100.00
35443;BME280;21561;55.654;37.592;2023-10-31T04:58:09;98912.00;;;8.27;100.00
35443;BME280;21561;55.654;37.592;2023-10-31T05:00:36;98912.94;;;8.22;100.00
35443;BME280;21561;55.654;37.592;2023-10-31T05:03:03;98913.84;;;8.15;100.00
35443;BME280;21561;55.654;37.592;2023-10-31T05:05:34;98908.72;;;8.09;100.00
35443;BME280;21561;55.654;37.592;2023-10-31T05:08:01;98907.03;;;8.05;100.00
35443;BME280;21561;55.654;37.592;2023-10-31T05:10:28;98920.88;;;8.01;100.00
35443;BME280;21561;55.654;37.592;2023-10-31T05:12:55;98919.13;;;8.00;100.00
35443;BME280;21561;55.654;37.592;2023-10-31T05:15:22;98922.63;;;7.99;100.00
35443;BME280;21561;55.654;37.592;2023-10-31T05:17:49;98925.19;;;7.97;100.00
35443;BME280;21561;55.654;37.592;2023-10-31T05:20:16;98930.41;;;7.93;100.00
35443;BME280;21561;55.654;37.592;2023-10-31T05:22:43;98932.97;;;7.93;100.00
35443;BME280;21561;55.654;37.592;2023-10-31T05:25:10;98939.88;;;7.91;100.00
35443;BME280;21561;55.654;37.592;2023-10-31T05:27:37;98941.63;;;7.89;100.00
35443;BME280;21561;55.654;37.592;2023-10-31T05:30:05;98935.59;;;7.90;100.00
35443;BME280;21561;55.654;37.592;2023-10-31T05:32:32;98937.28;;;7.92;100.00
35443;BME280;21561;55.654;37.592;2023-10-31T05:34:59;98937.28;;;7.95;100.00
35443;BME280;21561;55.654;37.592;2023-10-31T05:37:29;98939.81;;;8.00;100.00
35443;BME280;21561;55.654;37.592;2023-10-31T05:39:55;98969.06;;;8.03;100.00
35443;BME280;21561;55.654;37.592;2023-10-31T05:42:22;98969.06;;;8.05;100.00
35443;BME280;21561;55.654;37.592;2023-10-31T05:44:51;98968.16;;;8.09;100.00
35443;BME280;21561;55.654;37.592;2023-10-31T05:47:18;98976.78;;;8.11;100.00
35443;BME280;21561;55.654;37.592;2023-10-31T05:49:46;98972.44;;;8.13;100.00
35443;BME280;21561;55.654;37.592;2023-10-31T05:52:13;98974.97;;;8.18;100.00
35443;BME280;21561;55.654;37.592;2023-10-31T05:54:40;98982.72;;;8.19;100.00
35443;BME280;21561;55.654;37.592;2023-10-31T05:57:07;98982.72;;;8.22;100.00
35443;BME280;21561;55.654;37.592;2023-10-31T05:59:34;98989.56;;;8.27;100.00
35443;BME280;21561;55.654;37.592;2023-10-31T06:02:01;99006.75;;;8.31;100.00
35443;BME280;21561;55.654;37.592;2023-10-31T06:04:28;99006.72;;;8.34;100.00
35443;BME280;21561;55.654;37.592;2023-10-31T06:06:55;99011.91;;;8.34;100.00
35443;BME280;21561;55.654;37.592;2023-10-31T06:09:22;99013.63;;;8.35;100.00
35443;BME280;21561;55.654;37.592;2023-10-31T06:11:49;99019.66;;;8.32;100.00
35443;BME280;21561;55.654;37.592;2023-10-31T06:14:16;99030.00;;;8.34;100.00
35443;BME280;21561;55.654;37.592;2023-10-31T06:16:43;99029.97;;;8.37;100.00
35443;BME280;21561;55.654;37.592;2023-10-31T06:19:11;99023.91;;;8.38;100.00
35443;BME280;21561;55.654;37.592;2023-10-31T06:21:38;99020.50;;;8.36;100.00
35443;BME280;21561;55.654;37.592;2023-10-31T06:24:05;99016.22;;;8.36;100.00
35443;BME280;21561;55.654;37.592;2023-10-31T06:26:32;99022.19;;;8.43;100.00
35443;BME280;21561;55.654;37.592;2023-10-31T06:28:59;99015.25;;;8.51;100.00
35443;BME280;21561;55.654;37.592;2023-10-31T06:31:46;99017.75;;;8.60;100.00
35443;BME280;21561;55.654;37.592;2023-10-31T06:34:13;99017.66;;;8.68;100.00
35443;BME280;21561;55.654;37.592;2023-10-31T06:36:40;99018.47;;;8.75;100.00
35443;BME280;21561;55.654;37.592;2023-10-31T06:39:06;99017.59;;;8.77;100.00
35443;BME280;21561;55.654;37.592;2023-10-31T06:41:33;99021.03;;;8.79;100.00
35443;BME280;21561;55.654;37.592;2023-10-31T06:44:00;99021.88;;;8.80;100.00
35443;BME280;21561;55.654;37.592;2023-10-31T06:46:30;99035.63;;;8.85;100.00
35443;BME280;21561;55.654;37.592;2023-10-31T06:49:11;99023.53;;;8.87;100.00
35443;BME280;21561;55.654;37.592;2023-10-31T06:51:38;99032.09;;;8.92;100.00
35443;BME280;21561;55.654;37.592;2023-10-31T06:54:05;99035.53;;;8.91;100.00
35443;BME280;21561;55.654;37.592;2023-10-31T06:56:32;99038.97;;;8.93;100.00
35443;BME280;21561;55.654;37.592;2023-10-31T06:58:59;99048.47;;;8.93;100.00
35443;BME280;21561;55.654;37.592;2023-10-31T07:01:27;99046.72;;;8.95;100.00
35443;BME280;21561;55.654;37.592;2023-10-31T07:03:54;99052.72;;;8.98;100.00
35443;BME280;21561;55.654;37.592;2023-10-31T07:06:21;99056.16;;;9.01;100.00
35443;BME280;21561;55.654;37.592;2023-10-31T07:08:48;99060.47;;;9.00;100.00
35443;BME280;21561;55.654;37.592;2023-10-31T07:11:14;99071.66;;;9.04;100.00
35443;BME280;21561;55.654;37.592;2023-10-31T07:13:41;99072.47;;;9.10;100.00
35443;BME280;21561;55.654;37.592;2023-10-31T07:16:08;99068.13;;;9.11;100.00
35443;BME280;21561;55.654;37.592;2023-10-31T07:18:35;99075.84;;;9.17;100.00
35443;BME280;21561;55.654;37.592;2023-10-31T07:21:03;99089.63;;;9.21;100.00
35443;BME280;21561;55.654;37.592;2023-10-31T07:23:30;99091.31;;;9.20;100.00
35443;BME280;21561;55.654;37.592;2023-10-31T07:25:57;99097.31;;;9.25;100.00
35443;BME280;21561;55.654;37.592;2023-10-31T07:28:24;99095.63;;;9.24;100.00
35443;BME280;21561;55.654;37.592;2023-10-31T07:30:51;99094.72;;;9.27;100.00
35443;BME280;21561;55.654;37.592;2023-10-31T07:33:18;99097.22;;;9.34;100.00
35443;BME280;21561;55.654;37.592;2023-10-31T07:35:45;99101.47;;;9.40;100.00
35443;BME280;21561;55.654;37.592;2023-10-31T07:38:12;99101.34;;;9.51;100.00
35443;BME280;21561;55.654;37.592;2023-10-31T07:40:39;99105.63;;;9.55;100.00
35443;BME280;21561;55.654;37.592;2023-10-31T07:43:06;99106.47;;;9.57;100.00
35443;BME280;21561;55.654;37.592;2023-10-31T07:45:33;99109.03;;;9.60;100.00
35443;BME280;21561;55.654;37.592;2023-10-31T07:48:01;99110.59;;;9.73;100.00
35443;BME280;21561;55.654;37.592;2023-10-31T07:50:28;99115.63;;;9.84;100.00
35443;BME280;21561;55.654;37.592;2023-10-31T07:52:55;99115.59;;;9.89;100.00
35443;BME280;21561;55.654;37.592;2023-10-31T07:55:22;99117.22;;;9.96;100.00
35443;BME280;21561;55.654;37.592;2023-10-31T07:57:49;99117.25;;;9.93;100.00
35443;BME280;21561;55.654;37.592;2023-10-31T08:00:16;99115.50;;;9.95;100.00
35443;BME280;21561;55.654;37.592;2023-10-31T08:02:43;99120.66;;;9.97;100.00
35443;BME280;21561;55.654;37.592;2023-10-31T08:05:10;99117.97;;;10.03;100.00
35443;BME280;21561;55.654;37.592;2023-10-31T08:07:38;99130.13;;;9.99;100.00
35443;BME280;21561;55.654;37.592;2023-10-31T08:10:05;99125.03;;;9.93;100.00
35443;BME280;21561;55.654;37.592;2023-10-31T08:12:32;99127.63;;;9.93;100.00
35443;BME280;21561;55.654;37.592;2023-10-31T08:14:59;99126.66;;;10.00;100.00
35443;BME280;21561;55.654;37.592;2023-10-31T08:17:29;99131.66;;;10.14;100.00
35443;BME280;21561;55.654;37.592;2023-10-31T08:19:56;99133.19;;;10.29;100.00
35443;BME280;21561;55.654;37.592;2023-10-31T08:22:23;99127.09;;;10.33;100.00
35443;BME280;21561;55.654;37.592;2023-10-31T08:24:50;99133.13;;;10.34;100.00
35443;BME280;21561;55.654;37.592;2023-10-31T08:27:17;99132.25;;;10.36;100.00
35443;BME280;21561;55.654;37.592;2023-10-31T08:29:43;99135.78;;;10.32;100.00
35443;BME280;21561;55.654;37.592;2023-10-31T08:32:10;99140.06;;;10.30;100.00
35443;BME280;21561;55.654;37.592;2023-10-31T08:34:37;99132.34;;;10.28;100.00
35443;BME280;21561;55.654;37.592;2023-10-31T08:37:04;99132.28;;;10.33;100.00
35443;BME280;21561;55.654;37.592;2023-10-31T08:39:31;99130.50;;;10.38;100.00
35443;BME280;21561;55.654;37.592;2023-10-31T08:41:58;99128.69;;;10.43;100.00
35443;BME280;21561;55.654;37.592;2023-10-31T08:44:26;99128.53;;;10.53;100.00
35443;BME280;21561;55.654;37.592;2023-10-31T08:46:53;99130.13;;;10.63;100.00
35443;BME280;21561;55.654;37.592;2023-10-31T08:49:20;99134.25;;;10.75;100.00
35443;BME280;21561;55.654;37.592;2023-10-31T08:51:47;99128.22;;;10.74;100.00
35443;BME280;21561;55.654;37.592;2023-10-31T08:54:14;99129.88;;;10.78;100.00
35443;BME280;21561;55.654;37.592;2023-10-31T08:56:41;99135.06;;;10.78;100.00
35443;BME280;21561;55.654;37.592;2023-10-31T08:59:08;99126.50;;;10.73;100.00
35443;BME280;21561;55.654;37.592;2023-10-31T09:01:35;99130.91;;;10.69;100.00
35443;BME280;21561;55.654;37.592;2023-10-31T09:04:03;99131.59;;;10.79;100.00
35443;BME280;21561;55.654;37.592;2023-10-31T09:06:30;99128.06;;;10.83;100.00
35443;BME280;21561;55.654;37.592;2023-10-31T09:08:56;99129.66;;;10.91;100.00
35443;BME280;21561;55.654;37.592;2023-10-31T09:11:23;99131.28;;;10.98;100.00
35443;BME280;21561;55.654;37.592;2023-10-31T09:13:50;99134.59;;;11.06;100.00
35443;BME280;21561;55.654;37.592;2023-10-31T09:16:17;99133.63;;;11.12;100.00
35443;BME280;21561;55.654;37.592;2023-10-31T09:18:44;99132.84;;;11.08;100.00
35443;BME280;21561;55.654;37.592;2023-10-31T09:21:13;99137.28;;;11.01;100.00
35443;BME280;21561;55.654;37.592;2023-10-31T09:23:40;99145.19;;;10.94;100.00
35443;BME280;21561;55.654;37.592;2023-10-31T09:26:07;99155.72;;;10.84;100.00
35443;BME280;21561;55.654;37.592;2023-10-31T09:28:35;99150.53;;;10.84;100.00
35443;BME280;21561;55.654;37.592;2023-10-31T09:31:03;99141.00;;;10.85;100.00
35443;BME280;21561;55.654;37.592;2023-10-31T09:33:30;99142.53;;;10.98;100.00
35443;BME280;21561;55.654;37.592;2023-10-31T09:35:57;99138.78;;;11.15;100.00
35443;BME280;21561;55.654;37.592;2023-10-31T09:38:24;99135.28;;;11.16;100.00
35443;BME280;21561;55.654;37.592;2023-10-31T09:40:53;99130.91;;;11.18;100.00
35443;BME280;21561;55.654;37.592;2023-10-31T09:43:20;99127.44;;;11.20;100.00
35443;BME280;21561;55.654;37.592;2023-10-31T09:45:47;99128.41;;;11.15;100.00
35443;BME280;21561;55.654;37.592;2023-10-31T09:48:21;99136.16;;;11.16;100.00
35443;BME280;21561;55.654;37.592;2023-10-31T09:50:49;99126.72;;;11.11;100.00
35443;BME280;21561;55.654;37.592;2023-10-31T09:53:16;99125.03;;;11.10;100.00
35443;BME280;21561;55.654;37.592;2023-10-31T09:55:43;99129.28;;;11.12;100.00
35443;BME280;21561;55.654;37.592;2023-10-31T09:58:11;99134.44;;;11.15;100.00
35443;BME280;21561;55.654;37.592;2023-10-31T10:00:38;99119.63;;;11.20;100.00
35443;BME280;21561;55.654;37.592;2023-10-31T10:03:07;99127.31;;;11.26;100.00
35443;BME280;21561;55.654;37.592;2023-10-31T10:05:39;99136.81;;;11.29;98.79
35443;BME280;21561;55.654;37.592;2023-10-31T10:08:06;99138.47;;;11.32;97.76
35443;BME280;21561;55.654;37.592;2023-10-31T10:10:35;99137.44;;;11.42;98.88
35443;BME280;21561;55.654;37.592;2023-10-31T10:13:02;99143.41;;;11.47;98.33
35443;BME280;21561;55.654;37.592;2023-10-31T10:15:30;99137.97;;;11.59;97.95
35443;BME280;21561;55.654;37.592;2023-10-31T10:17:57;99140.19;;;11.78;97.66
35443;BME280;21561;55.654;37.592;2023-10-31T10:20:24;99149.63;;;11.83;95.88
35443;BME280;21561;55.654;37.592;2023-10-31T10:22:52;99153.66;;;11.98;95.10
35443;BME280;21561;55.654;37.592;2023-10-31T10:25:19;99142.00;;;12.16;93.16
35443;BME280;21561;55.654;37.592;2023-10-31T10:27:46;99129.53;;;12.32;93.08
35443;BME280;21561;55.654;37.592;2023-10-31T10:30:14;99118.63;;;12.15;93.93
35443;BME280;21561;55.654;37.592;2023-10-31T10:32:42;99111.69;;;12.17;94.70
35443;BME280;21561;55.654;37.592;2023-10-31T10:35:09;99126.19;;;12.26;95.22
35443;BME280;21561;55.654;37.592;2023-10-31T10:37:39;99128.97;;;12.18;94.25
35443;BME280;21561;55.654;37.592;2023-10-31T10:40:07;99117.25;;;11.98;95.68
35443;BME280;21561;55.654;37.592;2023-10-31T10:42:45;99117.22;;;12.01;95.35
35443;BME280;21561;55.654;37.592;2023-10-31T10:45:16;99112.38;;;11.83;96.06
35443;BME280;21561;55.654;37.592;2023-10-31T10:47:47;99113.47;;;11.71;96.08
35443;BME280;21561;55.654;37.592;2023-10-31T10:50:15;99109.16;;;11.70;96.65
35443;BME280;21561;55.654;37.592;2023-10-31T10:52:50;99118.47;;;11.80;97.22
35443;BME280;21561;55.654;37.592;2023-10-31T10:55:25;99121.28;;;11.70;96.71
35443;BME280;21561;55.654;37.592;2023-10-31T10:58:00;99122.91;;;11.75;97.29
35443;BME280;21561;55.654;37.592;2023-10-31T11:00:29;99119.47;;;11.75;98.02
35443;BME280;21561;55.654;37.592;2023-10-31T11:02:57;99124.59;;;11.78;98.13
35443;BME280;21561;55.654;37.592;2023-10-31T11:05:24;99126.50;;;11.70;98.21
35443;BME280;21561;55.654;37.592;2023-10-31T11:07:52;99136.97;;;11.67;99.93
35443;BME280;21561;55.654;37.592;2023-10-31T11:10:22;99135.06;;;11.75;100.00
35443;BME280;21561;55.654;37.592;2023-10-31T11:12:51;99133.28;;;11.77;99.66
35443;BME280;21561;55.654;37.592;2023-10-31T11:15:18;99131.78;;;11.67;99.79
35443;BME280;21561;55.654;37.592;2023-10-31T11:17:46;99120.25;;;11.78;99.40
35443;BME280;21561;55.654;37.592;2023-10-31T11:20:15;99128.03;;;11.78;98.84
35443;BME280;21561;55.654;37.592;2023-10-31T11:22:44;99133.97;;;11.87;98.15
35443;BME280;21561;55.654;37.592;2023-10-31T11:25:13;99133.16;;;11.83;98.89
35443;BME280;21561;55.654;37.592;2023-10-31T11:27:53;99134.22;;;11.73;98.54
35443;BME280;21561;55.654;37.592;2023-10-31T11:30:28;99138.41;;;11.81;98.93
35443;BME280;21561;55.654;37.592;2023-10-31T11:32:58;99138.22;;;11.92;97.68
35443;BME280;21561;55.654;37.592;2023-10-31T11:35:29;99140.47;;;11.64;97.75
35443;BME280;21561;55.654;37.592;2023-10-31T11:38:03;99132.50;;;11.26;99.51
35443;BME280;21561;55.654;37.592;2023-10-31T11:40:37;99136.75;;;10.82;100.00
35443;BME280;21561;55.654;37.592;2023-10-31T11:43:13;99133.72;;;10.53;100.00
35443;BME280;21561;55.654;37.592;2023-10-31T11:45:44;99134.88;;;10.33;100.00
35443;BME280;21561;55.654;37.592;2023-10-31T11:48:15;99136.06;;;10.07;100.00
35443;BME280;21561;55.654;37.592;2023-10-31T11:50:42;99133.72;;;9.89;100.00
35443;BME280;21561;55.654;37.592;2023-10-31T11:53:11;99132.09;;;9.82;100.00
35443;BME280;21561;55.654;37.592;2023-10-31T11:55:46;99129.56;;;9.75;100.00
35443;BME280;21561;55.654;37.592;2023-10-31T11:58:21;99138.16;;;9.78;100.00
35443;BME280;21561;55.654;37.592;2023-10-31T12:01:00;99134.00;;;9.66;100.00
35443;BME280;21561;55.654;37.592;2023-10-31T12:03:27;99128.13;;;9.50;100.00
35443;BME280;21561;55.654;37.592;2023-10-31T12:06:04;99141.13;;;9.45;100.00
35443;BME280;21561;55.654;37.592;2023-10-31T12:08:37;99128.28;;;9.34;100.00
35443;BME280;21561;55.654;37.592;2023-10-31T12:11:11;99121.53;;;9.21;100.00
35443;BME280;21561;55.654;37.592;2023-10-31T12:13:41;99126.88;;;9.03;100.00
35443;BME280;21561;55.654;37.592;2023-10-31T12:16:09;99135.56;;;8.95;100.00
35443;BME280;21561;55.654;37.592;2023-10-31T12:18:38;99124.34;;;8.93;100.00
35443;BME280;21561;55.654;37.592;2023-10-31T12:21:08;99127.00;;;8.90;100.00
35443;BME280;21561;55.654;37.592;2023-10-31T12:23:37;99127.94;;;8.80;100.00
35443;BME280;21561;55.654;37.592;2023-10-31T12:26:04;99121.94;;;8.72;100.00
35443;BME280;21561;55.654;37.592;2023-10-31T12:28:31;99133.25;;;8.62;100.00
35443;BME280;21561;55.654;37.592;2023-10-31T12:30:58;99132.47;;;8.50;100.00
35443;BME280;21561;55.654;37.592;2023-10-31T12:33:26;99129.03;;;8.45;100.00
35443;BME280;21561;55.654;37.592;2023-10-31T12:35:58;99139.38;;;8.47;100.00
35443;BME280;21561;55.654;37.592;2023-10-31T12:38:27;99141.16;;;8.37;100.00
35443;BME280;21561;55.654;37.592;2023-10-31T12:40:55;99143.72;;;8.37;100.00
35443;BME280;21561;55.654;37.592;2023-10-31T12:43:24;99133.41;;;8.35;100.00
35443;BME280;21561;55.654;37.592;2023-10-31T12:45:52;99134.28;;;8.33;100.00
35443;BME280;21561;55.654;37.592;2023-10-31T12:48:24;99135.13;;;8.32;100.00
35443;BME280;21561;55.654;37.592;2023-10-31T12:50:55;99136.88;;;8.33;100.00